Etusivu
METAR-TAF:

METAR-TAF

Lentoasemat :

Vientiane, Laos

Leveyspiiri: 17-57N, Pituuspiiri: 102-34E, korkeus merenpinnasta: 171 m

Tämänhetkinen sää

Tämä raportti tehtiin 30 minuuttia sitten, kello 03.30 UTC
Tuuli 4 kn luoteesta
Lämpötila 30°C
Kosteus 70%
Ilmanpaine 1015 hPa
Näkyvyys: 6000 m
Hajanaisia pilviä 2000 ft:n korkeudessa
Muutamia pilviä 20000 ft:n korkeudessa

METAR: VLVT 210330Z 32004KT 6000 SCT020 FEW200 30/24 Q1015 NOSIG

Aika: 11:00 (04:00 UTC)

Sääennuste

Tämä raportti tehtiin 5 tuntia ja 0 minuuttia sitten, kello 23.00 UTC
Ennuste voimassa 21. päivästä klo 00 UTC - 21. päivään klo 24 UTC
Tuuli 4 kn idästä/koillisesta
Näkyvyys: 8000 m
Muutamia pilviä 2000 ft:n korkeudessa
Hajanaisia pilviä 5000 ft:n korkeudessa
Muutamia pilviä 20000 ft:n korkeudessa

TAF: VLVT 202300Z 2100/2124 06004KT 8000 FEW020 SCT050 FEW200

Säähavainnot ja -ennusteet yli 4000 lentoasemalta (METAR- ja TAF-raportit).

Käytössä olevat sääasemat on merkitty karttaan keltaisilla ja punaisilla pisteillä.

Aseta hiiri pisteen päälle nähdäksesi sääaseman nimen.

Klikkaa sitten nähdäksesi säähavainnot ja -ennusteet.

Kartan vaihtaminen: klikkaa mustalla rastilla varustettuja vihreitä pisteitä, niin voit zoomata sisään; viivalla varustettua vihreää pistettä, niin voit zoomata ulos tai vihreitä nuolia, niin pääset viereisille kartoille.


METAR-TAF: